sensor_id;sensor_type;location;lat;lon;timestamp;P1;durP1;ratioP1;P2;durP2;ratioP2
24813;SDS011;12904;50.088;11.414;2023-02-28T00:00:21;9.77;;;6.00;;
24813;SDS011;12904;50.088;11.414;2023-02-28T00:02:47;5.78;;;3.78;;
24813;SDS011;12904;50.088;11.414;2023-02-28T00:05:14;5.25;;;4.07;;
24813;SDS011;12904;50.088;11.414;2023-02-28T00:07:42;5.22;;;2.90;;
24813;SDS011;12904;50.088;11.414;2023-02-28T00:10:09;10.20;;;5.18;;
24813;SDS011;12904;50.088;11.414;2023-02-28T00:12:37;7.05;;;4.07;;
24813;SDS011;12904;50.088;11.414;2023-02-28T00:15:07;19.42;;;7.70;;
24813;SDS011;12904;50.088;11.414;2023-02-28T00:20:00;6.07;;;4.45;;
24813;SDS011;12904;50.088;11.414;2023-02-28T00:22:29;12.93;;;6.18;;
24813;SDS011;12904;50.088;11.414;2023-02-28T00:24:55;18.13;;;8.95;;
24813;SDS011;12904;50.088;11.414;2023-02-28T00:27:21;8.43;;;4.85;;
24813;SDS011;12904;50.088;11.414;2023-02-28T00:29:46;6.38;;;4.10;;
24813;SDS011;12904;50.088;11.414;2023-02-28T00:32:12;19.52;;;9.15;;
24813;SDS011;12904;50.088;11.414;2023-02-28T00:34:38;24.30;;;9.40;;
24813;SDS011;12904;50.088;11.414;2023-02-28T00:37:08;11.27;;;6.65;;
24813;SDS011;12904;50.088;11.414;2023-02-28T00:39:37;14.05;;;6.05;;
24813;SDS011;12904;50.088;11.414;2023-02-28T00:42:03;6.10;;;4.93;;
24813;SDS011;12904;50.088;11.414;2023-02-28T00:44:30;6.47;;;3.85;;
24813;SDS011;12904;50.088;11.414;2023-02-28T00:46:56;5.13;;;4.15;;
24813;SDS011;12904;50.088;11.414;2023-02-28T00:49:23;9.30;;;4.93;;
24813;SDS011;12904;50.088;11.414;2023-02-28T00:51:48;6.90;;;4.90;;
24813;SDS011;12904;50.088;11.414;2023-02-28T00:54:15;7.68;;;3.75;;
24813;SDS011;12904;50.088;11.414;2023-02-28T00:56:41;9.07;;;5.63;;
24813;SDS011;12904;50.088;11.414;2023-02-28T00:59:07;6.13;;;4.53;;
24813;SDS011;12904;50.088;11.414;2023-02-28T01:01:32;7.13;;;5.05;;
24813;SDS011;12904;50.088;11.414;2023-02-28T01:03:58;6.25;;;3.65;;
24813;SDS011;12904;50.088;11.414;2023-02-28T01:06:23;9.75;;;6.30;;
24813;SDS011;12904;50.088;11.414;2023-02-28T01:08:49;15.32;;;7.65;;
24813;SDS011;12904;50.088;11.414;2023-02-28T01:11:18;7.43;;;4.50;;
24813;SDS011;12904;50.088;11.414;2023-02-28T01:13:45;6.80;;;4.20;;
24813;SDS011;12904;50.088;11.414;2023-02-28T01:16:11;7.80;;;3.60;;
24813;SDS011;12904;50.088;11.414;2023-02-28T01:18:37;5.88;;;3.80;;
24813;SDS011;12904;50.088;11.414;2023-02-28T01:21:04;6.78;;;4.30;;
24813;SDS011;12904;50.088;11.414;2023-02-28T01:23:31;5.47;;;3.88;;
24813;SDS011;12904;50.088;11.414;2023-02-28T01:25:58;8.07;;;3.63;;
24813;SDS011;12904;50.088;11.414;2023-02-28T01:28:36;5.15;;;3.65;;
24813;SDS011;12904;50.088;11.414;2023-02-28T01:31:02;6.38;;;4.03;;
24813;SDS011;12904;50.088;11.414;2023-02-28T01:33:28;5.78;;;3.90;;
24813;SDS011;12904;50.088;11.414;2023-02-28T01:35:57;4.28;;;3.88;;
24813;SDS011;12904;50.088;11.414;2023-02-28T01:38:24;6.55;;;3.63;;
24813;SDS011;12904;50.088;11.414;2023-02-28T01:40:49;8.05;;;4.57;;
24813;SDS011;12904;50.088;11.414;2023-02-28T01:46:07;5.60;;;3.65;;
24813;SDS011;12904;50.088;11.414;2023-02-28T01:48:34;4.80;;;3.80;;
24813;SDS011;12904;50.088;11.414;2023-02-28T01:51:09;6.63;;;3.97;;
24813;SDS011;12904;50.088;11.414;2023-02-28T01:53:44;5.18;;;3.30;;
24813;SDS011;12904;50.088;11.414;2023-02-28T01:56:14;5.43;;;3.90;;
24813;SDS011;12904;50.088;11.414;2023-02-28T01:58:49;6.10;;;4.18;;
24813;SDS011;12904;50.088;11.414;2023-02-28T02:03:59;5.28;;;3.85;;
24813;SDS011;12904;50.088;11.414;2023-02-28T02:06:34;6.78;;;4.70;;
24813;SDS011;12904;50.088;11.414;2023-02-28T02:09:05;6.63;;;4.07;;
24813;SDS011;12904;50.088;11.414;2023-02-28T02:11:31;6.90;;;4.15;;
24813;SDS011;12904;50.088;11.414;2023-02-28T02:35:51;10.52;;;4.82;;
24813;SDS011;12904;50.088;11.414;2023-02-28T02:38:38;6.43;;;4.68;;
24813;SDS011;12904;50.088;11.414;2023-02-28T02:41:19;6.97;;;4.40;;
24813;SDS011;12904;50.088;11.414;2023-02-28T02:43:56;9.02;;;5.10;;
24813;SDS011;12904;50.088;11.414;2023-02-28T02:46:47;11.90;;;5.18;;
24813;SDS011;12904;50.088;11.414;2023-02-28T02:49:33;6.80;;;4.75;;
24813;SDS011;12904;50.088;11.414;2023-02-28T02:52:02;6.20;;;5.60;;
24813;SDS011;12904;50.088;11.414;2023-02-28T02:54:32;8.10;;;5.45;;
24813;SDS011;12904;50.088;11.414;2023-02-28T02:57:03;8.00;;;5.90;;
24813;SDS011;12904;50.088;11.414;2023-02-28T02:59:33;7.72;;;6.57;;
24813;SDS011;12904;50.088;11.414;2023-02-28T03:02:04;8.85;;;6.40;;
24813;SDS011;12904;50.088;11.414;2023-02-28T03:04:35;9.30;;;6.75;;
24813;SDS011;12904;50.088;11.414;2023-02-28T03:07:07;10.15;;;5.75;;
24813;SDS011;12904;50.088;11.414;2023-02-28T03:09:33;7.13;;;5.45;;
24813;SDS011;12904;50.088;11.414;2023-02-28T03:12:00;9.48;;;5.57;;
24813;SDS011;12904;50.088;11.414;2023-02-28T03:25:53;5.97;;;4.47;;
24813;SDS011;12904;50.088;11.414;2023-02-28T03:29:42;6.25;;;4.22;;
24813;SDS011;12904;50.088;11.414;2023-02-28T03:31:53;5.82;;;4.85;;
24813;SDS011;12904;50.088;11.414;2023-02-28T03:37:11;6.20;;;4.82;;
24813;SDS011;12904;50.088;11.414;2023-02-28T03:39:44;7.78;;;5.00;;
24813;SDS011;12904;50.088;11.414;2023-02-28T03:44:42;8.80;;;5.50;;
24813;SDS011;12904;50.088;11.414;2023-02-28T03:50:08;5.47;;;4.43;;
24813;SDS011;12904;50.088;11.414;2023-02-28T03:52:48;6.97;;;4.85;;
24813;SDS011;12904;50.088;11.414;2023-02-28T03:55:30;6.53;;;4.68;;
24813;SDS011;12904;50.088;11.414;2023-02-28T04:00:47;8.52;;;6.35;;
24813;SDS011;12904;50.088;11.414;2023-02-28T04:03:17;8.02;;;6.32;;
24813;SDS011;12904;50.088;11.414;2023-02-28T04:05:47;9.05;;;5.93;;
24813;SDS011;12904;50.088;11.414;2023-02-28T04:08:16;13.27;;;6.95;;
24813;SDS011;12904;50.088;11.414;2023-02-28T04:10:43;12.70;;;6.65;;
24813;SDS011;12904;50.088;11.414;2023-02-28T04:13:13;11.68;;;7.80;;
24813;SDS011;12904;50.088;11.414;2023-02-28T04:15:38;8.38;;;6.18;;
24813;SDS011;12904;50.088;11.414;2023-02-28T04:18:04;9.23;;;6.70;;
24813;SDS011;12904;50.088;11.414;2023-02-28T04:20:30;8.13;;;6.10;;
24813;SDS011;12904;50.088;11.414;2023-02-28T04:22:56;7.53;;;5.85;;
24813;SDS011;12904;50.088;11.414;2023-02-28T04:25:21;13.27;;;6.95;;
24813;SDS011;12904;50.088;11.414;2023-02-28T04:27:47;11.60;;;6.85;;
24813;SDS011;12904;50.088;11.414;2023-02-28T04:30:13;19.95;;;7.90;;
24813;SDS011;12904;50.088;11.414;2023-02-28T04:32:38;8.35;;;5.47;;
24813;SDS011;12904;50.088;11.414;2023-02-28T04:35:04;19.40;;;8.73;;
24813;SDS011;12904;50.088;11.414;2023-02-28T04:37:30;7.80;;;5.72;;
24813;SDS011;12904;50.088;11.414;2023-02-28T04:40:00;14.52;;;8.93;;
24813;SDS011;12904;50.088;11.414;2023-02-28T04:42:26;11.70;;;7.22;;
24813;SDS011;12904;50.088;11.414;2023-02-28T04:44:52;9.82;;;6.45;;
24813;SDS011;12904;50.088;11.414;2023-02-28T04:47:17;7.00;;;5.03;;
24813;SDS011;12904;50.088;11.414;2023-02-28T04:49:43;8.02;;;5.68;;
24813;SDS011;12904;50.088;11.414;2023-02-28T04:52:09;9.45;;;5.95;;
24813;SDS011;12904;50.088;11.414;2023-02-28T04:54:35;7.63;;;5.88;;
24813;SDS011;12904;50.088;11.414;2023-02-28T04:57:03;9.40;;;7.43;;
24813;SDS011;12904;50.088;11.414;2023-02-28T04:59:29;9.43;;;6.88;;
24813;SDS011;12904;50.088;11.414;2023-02-28T05:01:54;10.45;;;7.97;;
24813;SDS011;12904;50.088;11.414;2023-02-28T05:04:20;9.07;;;7.25;;
24813;SDS011;12904;50.088;11.414;2023-02-28T05:06:46;12.07;;;7.20;;
24813;SDS011;12904;50.088;11.414;2023-02-28T05:09:11;9.45;;;6.72;;
24813;SDS011;12904;50.088;11.414;2023-02-28T05:11:37;9.05;;;6.88;;
24813;SDS011;12904;50.088;11.414;2023-02-28T05:14:05;11.98;;;7.57;;
24813;SDS011;12904;50.088;11.414;2023-02-28T05:16:32;11.15;;;8.07;;
24813;SDS011;12904;50.088;11.414;2023-02-28T05:18:58;10.13;;;7.05;;
24813;SDS011;12904;50.088;11.414;2023-02-28T05:23:49;10.50;;;7.85;;
24813;SDS011;12904;50.088;11.414;2023-02-28T05:26:15;11.20;;;7.60;;
24813;SDS011;12904;50.088;11.414;2023-02-28T05:28:41;9.60;;;7.35;;
24813;SDS011;12904;50.088;11.414;2023-02-28T05:31:07;10.32;;;8.13;;
24813;SDS011;12904;50.088;11.414;2023-02-28T05:33:35;11.40;;;7.20;;
24813;SDS011;12904;50.088;11.414;2023-02-28T05:36:01;8.98;;;7.03;;
24813;SDS011;12904;50.088;11.414;2023-02-28T05:38:27;9.65;;;8.45;;
24813;SDS011;12904;50.088;11.414;2023-02-28T05:40:52;9.40;;;7.25;;
24813;SDS011;12904;50.088;11.414;2023-02-28T05:43:18;8.88;;;7.22;;
24813;SDS011;12904;50.088;11.414;2023-02-28T05:45:44;9.73;;;7.90;;
24813;SDS011;12904;50.088;11.414;2023-02-28T05:48:09;10.43;;;7.28;;
24813;SDS011;12904;50.088;11.414;2023-02-28T05:50:35;8.40;;;7.03;;
24813;SDS011;12904;50.088;11.414;2023-02-28T05:53:01;11.55;;;7.10;;
24813;SDS011;12904;50.088;11.414;2023-02-28T05:55:27;9.27;;;7.90;;
24813;SDS011;12904;50.088;11.414;2023-02-28T05:57:53;11.80;;;7.93;;
24813;SDS011;12904;50.088;11.414;2023-02-28T06:00:18;11.35;;;7.65;;
24813;SDS011;12904;50.088;11.414;2023-02-28T06:02:44;13.65;;;9.23;;
24813;SDS011;12904;50.088;11.414;2023-02-28T06:05:14;9.85;;;6.78;;
24813;SDS011;12904;50.088;11.414;2023-02-28T06:07:41;12.25;;;8.30;;
24813;SDS011;12904;50.088;11.414;2023-02-28T06:10:06;8.80;;;6.82;;
24813;SDS011;12904;50.088;11.414;2023-02-28T06:12:33;11.20;;;7.05;;
24813;SDS011;12904;50.088;11.414;2023-02-28T06:14:58;10.05;;;7.78;;
24813;SDS011;12904;50.088;11.414;2023-02-28T06:17:24;8.73;;;7.15;;
24813;SDS011;12904;50.088;11.414;2023-02-28T06:19:49;13.18;;;8.32;;
24813;SDS011;12904;50.088;11.414;2023-02-28T06:22:15;11.20;;;7.63;;
24813;SDS011;12904;50.088;11.414;2023-02-28T06:24:41;9.52;;;7.53;;
24813;SDS011;12904;50.088;11.414;2023-02-28T06:27:06;10.68;;;9.13;;
24813;SDS011;12904;50.088;11.414;2023-02-28T06:29:32;12.20;;;8.23;;
24813;SDS011;12904;50.088;11.414;2023-02-28T06:31:58;11.30;;;7.05;;
24813;SDS011;12904;50.088;11.414;2023-02-28T06:34:24;8.32;;;6.88;;
24813;SDS011;12904;50.088;11.414;2023-02-28T06:36:50;12.25;;;7.40;;
24813;SDS011;12904;50.088;11.414;2023-02-28T06:39:17;12.10;;;9.00;;
24813;SDS011;12904;50.088;11.414;2023-02-28T06:41:43;9.48;;;7.38;;
24813;SDS011;12904;50.088;11.414;2023-02-28T06:44:14;13.48;;;8.80;;
24813;SDS011;12904;50.088;11.414;2023-02-28T06:46:42;10.40;;;7.65;;
24813;SDS011;12904;50.088;11.414;2023-02-28T06:49:09;9.93;;;8.05;;
24813;SDS011;12904;50.088;11.414;2023-02-28T06:51:35;9.70;;;8.32;;
24813;SDS011;12904;50.088;11.414;2023-02-28T06:54:02;10.65;;;8.02;;
24813;SDS011;12904;50.088;11.414;2023-02-28T06:56:28;10.05;;;6.13;;
24813;SDS011;12904;50.088;11.414;2023-02-28T06:58:54;11.05;;;8.07;;
24813;SDS011;12904;50.088;11.414;2023-02-28T07:01:20;10.15;;;8.02;;
24813;SDS011;12904;50.088;11.414;2023-02-28T07:03:48;13.93;;;8.52;;
24813;SDS011;12904;50.088;11.414;2023-02-28T07:06:17;11.88;;;9.00;;
24813;SDS011;12904;50.088;11.414;2023-02-28T07:08:43;15.00;;;9.57;;
24813;SDS011;12904;50.088;11.414;2023-02-28T07:11:09;11.18;;;8.40;;
24813;SDS011;12904;50.088;11.414;2023-02-28T07:13:35;18.40;;;7.25;;
24813;SDS011;12904;50.088;11.414;2023-02-28T07:16:05;12.05;;;7.90;;
24813;SDS011;12904;50.088;11.414;2023-02-28T07:18:34;10.75;;;8.05;;
24813;SDS011;12904;50.088;11.414;2023-02-28T07:21:07;9.93;;;7.72;;
24813;SDS011;12904;50.088;11.414;2023-02-28T07:23:34;13.95;;;8.63;;
24813;SDS011;12904;50.088;11.414;2023-02-28T07:26:00;11.13;;;8.45;;
24813;SDS011;12904;50.088;11.414;2023-02-28T07:28:26;13.77;;;7.70;;
24813;SDS011;12904;50.088;11.414;2023-02-28T07:30:52;13.85;;;8.50;;
24813;SDS011;12904;50.088;11.414;2023-02-28T07:33:18;9.60;;;8.60;;
24813;SDS011;12904;50.088;11.414;2023-02-28T07:35:43;11.30;;;8.30;;
24813;SDS011;12904;50.088;11.414;2023-02-28T07:38:09;10.23;;;8.65;;
24813;SDS011;12904;50.088;11.414;2023-02-28T07:40:35;9.85;;;8.68;;
24813;SDS011;12904;50.088;11.414;2023-02-28T07:43:02;11.55;;;8.30;;
24813;SDS011;12904;50.088;11.414;2023-02-28T07:45:28;13.63;;;7.72;;
24813;SDS011;12904;50.088;11.414;2023-02-28T07:47:55;10.02;;;7.63;;
24813;SDS011;12904;50.088;11.414;2023-02-28T07:50:21;9.40;;;6.60;;
24813;SDS011;12904;50.088;11.414;2023-02-28T07:52:46;8.77;;;7.60;;
24813;SDS011;12904;50.088;11.414;2023-02-28T07:55:12;9.30;;;7.05;;
24813;SDS011;12904;50.088;11.414;2023-02-28T07:57:38;11.27;;;8.70;;
24813;SDS011;12904;50.088;11.414;2023-02-28T08:00:06;11.82;;;8.27;;
24813;SDS011;12904;50.088;11.414;2023-02-28T08:02:34;19.88;;;9.13;;
24813;SDS011;12904;50.088;11.414;2023-02-28T08:05:01;11.93;;;7.75;;
24813;SDS011;12904;50.088;11.414;2023-02-28T08:07:26;11.68;;;8.38;;
24813;SDS011;12904;50.088;11.414;2023-02-28T08:09:52;10.18;;;7.57;;
24813;SDS011;12904;50.088;11.414;2023-02-28T08:12:18;9.18;;;7.22;;
24813;SDS011;12904;50.088;11.414;2023-02-28T08:14:43;15.00;;;8.23;;
24813;SDS011;12904;50.088;11.414;2023-02-28T08:17:09;11.30;;;6.13;;
24813;SDS011;12904;50.088;11.414;2023-02-28T08:19:36;9.70;;;7.93;;
24813;SDS011;12904;50.088;11.414;2023-02-28T08:22:01;10.68;;;6.88;;
24813;SDS011;12904;50.088;11.414;2023-02-28T08:24:27;8.27;;;6.28;;
24813;SDS011;12904;50.088;11.414;2023-02-28T08:26:53;12.60;;;7.25;;
24813;SDS011;12904;50.088;11.414;2023-02-28T08:29:18;8.35;;;6.22;;
24813;SDS011;12904;50.088;11.414;2023-02-28T08:31:44;10.27;;;6.47;;
24813;SDS011;12904;50.088;11.414;2023-02-28T08:34:11;8.60;;;6.00;;
24813;SDS011;12904;50.088;11.414;2023-02-28T08:36:38;8.63;;;6.78;;
24813;SDS011;12904;50.088;11.414;2023-02-28T08:39:04;7.43;;;5.95;;
24813;SDS011;12904;50.088;11.414;2023-02-28T08:41:31;12.57;;;5.78;;
24813;SDS011;12904;50.088;11.414;2023-02-28T08:43:57;8.07;;;6.15;;
24813;SDS011;12904;50.088;11.414;2023-02-28T08:46:23;9.32;;;6.57;;
24813;SDS011;12904;50.088;11.414;2023-02-28T08:48:56;6.38;;;5.57;;
24813;SDS011;12904;50.088;11.414;2023-02-28T08:51:25;9.30;;;6.00;;
24813;SDS011;12904;50.088;11.414;2023-02-28T08:53:54;9.52;;;6.30;;
24813;SDS011;12904;50.088;11.414;2023-02-28T08:56:22;9.63;;;6.50;;
24813;SDS011;12904;50.088;11.414;2023-02-28T08:58:49;9.48;;;6.55;;
24813;SDS011;12904;50.088;11.414;2023-02-28T09:01:16;7.22;;;5.68;;
24813;SDS011;12904;50.088;11.414;2023-02-28T09:03:47;9.45;;;6.68;;
24813;SDS011;12904;50.088;11.414;2023-02-28T09:06:14;9.20;;;7.20;;
24813;SDS011;12904;50.088;11.414;2023-02-28T09:08:41;9.02;;;6.30;;
24813;SDS011;12904;50.088;11.414;2023-02-28T09:11:07;8.23;;;6.00;;
24813;SDS011;12904;50.088;11.414;2023-02-28T09:13:33;12.57;;;5.80;;
24813;SDS011;12904;50.088;11.414;2023-02-28T09:16:00;11.70;;;5.75;;
24813;SDS011;12904;50.088;11.414;2023-02-28T09:18:26;7.95;;;5.60;;
24813;SDS011;12904;50.088;11.414;2023-02-28T09:20:52;8.85;;;6.78;;
24813;SDS011;12904;50.088;11.414;2023-02-28T09:23:19;7.72;;;6.32;;
24813;SDS011;12904;50.088;11.414;2023-02-28T09:25:45;11.05;;;6.05;;
24813;SDS011;12904;50.088;11.414;2023-02-28T09:28:12;7.03;;;5.63;;
24813;SDS011;12904;50.088;11.414;2023-02-28T09:30:40;8.05;;;6.07;;
24813;SDS011;12904;50.088;11.414;2023-02-28T09:33:07;6.57;;;5.18;;
24813;SDS011;12904;50.088;11.414;2023-02-28T09:35:33;6.38;;;5.78;;
24813;SDS011;12904;50.088;11.414;2023-02-28T09:37:58;5.88;;;4.65;;
24813;SDS011;12904;50.088;11.414;2023-02-28T09:40:24;6.28;;;5.45;;
24813;SDS011;12904;50.088;11.414;2023-02-28T09:42:51;6.70;;;5.60;;
24813;SDS011;12904;50.088;11.414;2023-02-28T09:47:51;7.72;;;6.97;;
24813;SDS011;12904;50.088;11.414;2023-02-28T09:53:31;7.95;;;5.40;;
24813;SDS011;12904;50.088;11.414;2023-02-28T09:56:01;6.53;;;5.47;;
24813;SDS011;12904;50.088;11.414;2023-02-28T10:06:37;6.65;;;5.90;;
24813;SDS011;12904;50.088;11.414;2023-02-28T10:09:10;9.27;;;5.97;;
24813;SDS011;12904;50.088;11.414;2023-02-28T10:11:40;7.43;;;5.95;;
24813;SDS011;12904;50.088;11.414;2023-02-28T10:14:15;9.43;;;5.70;;
24813;SDS011;12904;50.088;11.414;2023-02-28T10:16:47;6.88;;;6.18;;
24813;SDS011;12904;50.088;11.414;2023-02-28T10:22:16;6.75;;;5.95;;
24813;SDS011;12904;50.088;11.414;2023-02-28T10:24:53;6.32;;;5.40;;
24813;SDS011;12904;50.088;11.414;2023-02-28T10:27:25;7.20;;;5.90;;
24813;SDS011;12904;50.088;11.414;2023-02-28T10:29:58;7.07;;;5.20;;
24813;SDS011;12904;50.088;11.414;2023-02-28T10:32:29;8.10;;;5.75;;
24813;SDS011;12904;50.088;11.414;2023-02-28T10:37:31;17.85;;;6.18;;
24813;SDS011;12904;50.088;11.414;2023-02-28T10:40:03;8.23;;;7.43;;
24813;SDS011;12904;50.088;11.414;2023-02-28T10:42:30;7.57;;;5.72;;
24813;SDS011;12904;50.088;11.414;2023-02-28T10:45:15;8.75;;;5.63;;
24813;SDS011;12904;50.088;11.414;2023-02-28T10:47:52;6.35;;;5.75;;
24813;SDS011;12904;50.088;11.414;2023-02-28T10:52:51;6.88;;;5.82;;
24813;SDS011;12904;50.088;11.414;2023-02-28T10:55:23;7.97;;;5.70;;
24813;SDS011;12904;50.088;11.414;2023-02-28T10:57:50;6.22;;;5.10;;
24813;SDS011;12904;50.088;11.414;2023-02-28T11:02:56;9.30;;;5.55;;
24813;SDS011;12904;50.088;11.414;2023-02-28T11:05:31;7.47;;;5.90;;
24813;SDS011;12904;50.088;11.414;2023-02-28T11:08:02;6.13;;;5.53;;
24813;SDS011;12904;50.088;11.414;2023-02-28T11:10:30;6.50;;;4.97;;
24813;SDS011;12904;50.088;11.414;2023-02-28T11:12:59;5.47;;;4.82;;
24813;SDS011;12904;50.088;11.414;2023-02-28T11:15:27;7.57;;;5.30;;
24813;SDS011;12904;50.088;11.414;2023-02-28T11:17:55;8.40;;;4.68;;
24813;SDS011;12904;50.088;11.414;2023-02-28T11:20:26;6.75;;;6.03;;
24813;SDS011;12904;50.088;11.414;2023-02-28T11:22:55;7.63;;;5.13;;
24813;SDS011;12904;50.088;11.414;2023-02-28T11:25:33;7.30;;;5.47;;
24813;SDS011;12904;50.088;11.414;2023-02-28T11:28:03;9.80;;;7.40;;
24813;SDS011;12904;50.088;11.414;2023-02-28T11:30:35;9.85;;;7.25;;
24813;SDS011;12904;50.088;11.414;2023-02-28T11:33:18;10.10;;;7.30;;
24813;SDS011;12904;50.088;11.414;2023-02-28T11:35:49;8.00;;;7.20;;
24813;SDS011;12904;50.088;11.414;2023-02-28T11:38:16;8.40;;;7.30;;
24813;SDS011;12904;50.088;11.414;2023-02-28T11:46:07;6.43;;;5.82;;
24813;SDS011;12904;50.088;11.414;2023-02-28T11:51:44;8.10;;;6.78;;
24813;SDS011;12904;50.088;11.414;2023-02-28T11:57:03;6.32;;;5.68;;
24813;SDS011;12904;50.088;11.414;2023-02-28T12:05:34;7.63;;;4.93;;
24813;SDS011;12904;50.088;11.414;2023-02-28T12:10:44;5.53;;;4.93;;
24813;SDS011;12904;50.088;11.414;2023-02-28T12:21:26;6.57;;;6.00;;
24813;SDS011;12904;50.088;11.414;2023-02-28T12:25:09;6.03;;;5.38;;
24813;SDS011;12904;50.088;11.414;2023-02-28T12:27:09;6.90;;;6.00;;
24813;SDS011;12904;50.088;11.414;2023-02-28T12:30:00;6.53;;;5.70;;
24813;SDS011;12904;50.088;11.414;2023-02-28T12:32:33;15.07;;;10.45;;
24813;SDS011;12904;50.088;11.414;2023-02-28T12:37:37;6.10;;;5.50;;
24813;SDS011;12904;50.088;11.414;2023-02-28T12:40:19;6.10;;;5.50;;
24813;SDS011;12904;50.088;11.414;2023-02-28T12:42:51;5.40;;;4.90;;
24813;SDS011;12904;50.088;11.414;2023-02-28T12:45:22;5.93;;;5.32;;
24813;SDS011;12904;50.088;11.414;2023-02-28T12:47:58;6.25;;;5.65;;
24813;SDS011;12904;50.088;11.414;2023-02-28T12:50:27;6.57;;;5.97;;
24813;SDS011;12904;50.088;11.414;2023-02-28T12:53:40;9.68;;;6.13;;
24813;SDS011;12904;50.088;11.414;2023-02-28T12:58:33;6.70;;;5.38;;
24813;SDS011;12904;50.088;11.414;2023-02-28T13:09:12;8.27;;;5.65;;
24813;SDS011;12904;50.088;11.414;2023-02-28T13:25:02;8.32;;;5.72;;
24813;SDS011;12904;50.088;11.414;2023-02-28T13:27:48;5.13;;;4.63;;
24813;SDS011;12904;50.088;11.414;2023-02-28T13:33:33;5.90;;;5.30;;
24813;SDS011;12904;50.088;11.414;2023-02-28T13:36:27;5.20;;;4.70;;
24813;SDS011;12904;50.088;11.414;2023-02-28T13:44:06;5.18;;;4.68;;
24813;SDS011;12904;50.088;11.414;2023-02-28T14:03:23;9.52;;;6.85;;
24813;SDS011;12904;50.088;11.414;2023-02-28T14:05:47;8.10;;;6.07;;
24813;SDS011;12904;50.088;11.414;2023-02-28T14:08:42;8.30;;;7.45;;
24813;SDS011;12904;50.088;11.414;2023-02-28T14:11:52;7.55;;;6.57;;
24813;SDS011;12904;50.088;11.414;2023-02-28T14:17:05;10.00;;;8.27;;
24813;SDS011;12904;50.088;11.414;2023-02-28T14:19:34;8.52;;;6.50;;
24813;SDS011;12904;50.088;11.414;2023-02-28T14:44:24;10.32;;;7.13;;
24813;SDS011;12904;50.088;11.414;2023-02-28T14:46:53;11.07;;;9.80;;
24813;SDS011;12904;50.088;11.414;2023-02-28T14:49:30;10.15;;;6.88;;
24813;SDS011;12904;50.088;11.414;2023-02-28T14:52:23;6.70;;;5.88;;
24813;SDS011;12904;50.088;11.414;2023-02-28T14:57:30;6.68;;;5.95;;
24813;SDS011;12904;50.088;11.414;2023-02-28T15:05:10;7.25;;;5.75;;
24813;SDS011;12904;50.088;11.414;2023-02-28T15:07:43;7.32;;;5.70;;
24813;SDS011;12904;50.088;11.414;2023-02-28T15:12:35;7.10;;;6.40;;
24813;SDS011;12904;50.088;11.414;2023-02-28T15:15:02;6.78;;;5.93;;
24813;SDS011;12904;50.088;11.414;2023-02-28T15:17:28;6.90;;;6.20;;
24813;SDS011;12904;50.088;11.414;2023-02-28T15:19:54;7.35;;;5.65;;
24813;SDS011;12904;50.088;11.414;2023-02-28T15:22:24;6.57;;;5.78;;
24813;SDS011;12904;50.088;11.414;2023-02-28T15:24:56;6.00;;;5.40;;
24813;SDS011;12904;50.088;11.414;2023-02-28T15:27:29;6.68;;;5.97;;
24813;SDS011;12904;50.088;11.414;2023-02-28T15:30:07;8.32;;;6.90;;
24813;SDS011;12904;50.088;11.414;2023-02-28T15:32:39;6.57;;;5.97;;
24813;SDS011;12904;50.088;11.414;2023-02-28T15:38:13;7.55;;;6.47;;
24813;SDS011;12904;50.088;11.414;2023-02-28T15:40:55;6.47;;;5.70;;
24813;SDS011;12904;50.088;11.414;2023-02-28T15:46:02;6.93;;;6.22;;
24813;SDS011;12904;50.088;11.414;2023-02-28T15:48:35;12.07;;;7.95;;
24813;SDS011;12904;50.088;11.414;2023-02-28T15:56:22;6.85;;;6.15;;
24813;SDS011;12904;50.088;11.414;2023-02-28T15:58:47;8.68;;;6.50;;
24813;SDS011;12904;50.088;11.414;2023-02-28T16:01:19;6.53;;;5.93;;
24813;SDS011;12904;50.088;11.414;2023-02-28T16:03:54;9.57;;;6.60;;
24813;SDS011;12904;50.088;11.414;2023-02-28T16:09:07;10.60;;;8.68;;
24813;SDS011;12904;50.088;11.414;2023-02-28T16:11:37;10.88;;;9.02;;
24813;SDS011;12904;50.088;11.414;2023-02-28T16:14:06;14.15;;;10.82;;
24813;SDS011;12904;50.088;11.414;2023-02-28T16:16:41;11.02;;;7.72;;
24813;SDS011;12904;50.088;11.414;2023-02-28T16:19:08;12.98;;;10.18;;
24813;SDS011;12904;50.088;11.414;2023-02-28T16:21:33;13.30;;;10.55;;
24813;SDS011;12904;50.088;11.414;2023-02-28T16:23:59;10.00;;;9.00;;
24813;SDS011;12904;50.088;11.414;2023-02-28T16:26:24;9.02;;;6.97;;
24813;SDS011;12904;50.088;11.414;2023-02-28T16:28:52;11.43;;;9.70;;
24813;SDS011;12904;50.088;11.414;2023-02-28T16:31:18;12.77;;;10.05;;
24813;SDS011;12904;50.088;11.414;2023-02-28T16:33:44;14.50;;;11.57;;
24813;SDS011;12904;50.088;11.414;2023-02-28T16:36:17;12.23;;;8.60;;
24813;SDS011;12904;50.088;11.414;2023-02-28T16:38:45;12.27;;;10.20;;
24813;SDS011;12904;50.088;11.414;2023-02-28T16:41:24;12.32;;;8.93;;
24813;SDS011;12904;50.088;11.414;2023-02-28T16:43:52;9.35;;;8.45;;
24813;SDS011;12904;50.088;11.414;2023-02-28T16:46:23;14.63;;;10.85;;
24813;SDS011;12904;50.088;11.414;2023-02-28T16:48:52;16.02;;;9.20;;
24813;SDS011;12904;50.088;11.414;2023-02-28T16:51:18;11.13;;;9.30;;
24813;SDS011;12904;50.088;11.414;2023-02-28T16:53:44;11.75;;;9.32;;
24813;SDS011;12904;50.088;11.414;2023-02-28T16:56:13;9.38;;;8.32;;
24813;SDS011;12904;50.088;11.414;2023-02-28T16:58:44;11.40;;;8.70;;
24813;SDS011;12904;50.088;11.414;2023-02-28T17:01:10;12.82;;;8.70;;
24813;SDS011;12904;50.088;11.414;2023-02-28T17:03:35;13.65;;;11.38;;
24813;SDS011;12904;50.088;11.414;2023-02-28T17:06:02;12.23;;;10.35;;
24813;SDS011;12904;50.088;11.414;2023-02-28T17:08:28;10.55;;;8.65;;
24813;SDS011;12904;50.088;11.414;2023-02-28T17:10:56;12.38;;;10.15;;
24813;SDS011;12904;50.088;11.414;2023-02-28T17:13:23;12.02;;;9.63;;
24813;SDS011;12904;50.088;11.414;2023-02-28T17:15:48;10.93;;;9.20;;
24813;SDS011;12904;50.088;11.414;2023-02-28T17:18:15;12.35;;;10.60;;
24813;SDS011;12904;50.088;11.414;2023-02-28T17:20:46;17.05;;;12.43;;
24813;SDS011;12904;50.088;11.414;2023-02-28T17:23:12;12.75;;;11.18;;
24813;SDS011;12904;50.088;11.414;2023-02-28T17:25:38;14.18;;;10.52;;
24813;SDS011;12904;50.088;11.414;2023-02-28T17:28:03;14.20;;;11.32;;
24813;SDS011;12904;50.088;11.414;2023-02-28T17:30:31;16.35;;;12.02;;
24813;SDS011;12904;50.088;11.414;2023-02-28T17:32:58;14.57;;;11.50;;
24813;SDS011;12904;50.088;11.414;2023-02-28T17:35:24;15.95;;;12.35;;
24813;SDS011;12904;50.088;11.414;2023-02-28T17:37:51;16.02;;;11.80;;
24813;SDS011;12904;50.088;11.414;2023-02-28T17:40:18;14.80;;;10.70;;
24813;SDS011;12904;50.088;11.414;2023-02-28T17:42:45;13.40;;;11.07;;
24813;SDS011;12904;50.088;11.414;2023-02-28T17:45:11;12.65;;;11.35;;
24813;SDS011;12904;50.088;11.414;2023-02-28T17:47:38;11.98;;;10.77;;
24813;SDS011;12904;50.088;11.414;2023-02-28T17:50:12;20.33;;;12.00;;
24813;SDS011;12904;50.088;11.414;2023-02-28T17:52:40;18.98;;;10.77;;
24813;SDS011;12904;50.088;11.414;2023-02-28T17:55:06;14.77;;;10.90;;
24813;SDS011;12904;50.088;11.414;2023-02-28T17:57:32;17.02;;;11.35;;
24813;SDS011;12904;50.088;11.414;2023-02-28T17:59:58;14.52;;;11.63;;
24813;SDS011;12904;50.088;11.414;2023-02-28T18:02:23;14.85;;;11.90;;
24813;SDS011;12904;50.088;11.414;2023-02-28T18:04:49;17.38;;;12.18;;
24813;SDS011;12904;50.088;11.414;2023-02-28T18:07:14;17.67;;;12.70;;